createdAt,value
2023-12-20T00:00:26.891Z,100673.60
2023-12-20T00:03:04.033Z,100661.60
2023-12-20T00:05:42.369Z,100655.80
2023-12-20T00:08:19.171Z,100656.80
2023-12-20T00:10:56.164Z,100656.20
2023-12-20T00:13:33.354Z,100649.40
2023-12-20T00:16:11.652Z,100650.20
2023-12-20T00:18:47.988Z,100645.80
2023-12-20T00:21:24.114Z,100631.80
2023-12-20T00:24:02.261Z,100628.60
2023-12-20T00:26:38.983Z,100623.80
2023-12-20T00:29:16.650Z,100617.00
2023-12-20T00:31:53.384Z,100608.60
2023-12-20T00:34:30.669Z,100612.00
2023-12-20T00:37:08.094Z,100606.00
2023-12-20T00:39:45.136Z,100604.00
2023-12-20T00:42:21.564Z,100599.60
2023-12-20T00:44:58.082Z,100595.80
2023-12-20T00:47:35.138Z,100592.40
2023-12-20T00:50:19.085Z,100583.20
2023-12-20T00:52:57.790Z,100579.60
2023-12-20T00:55:35.026Z,100584.80
2023-12-20T00:58:12.077Z,100580.40
2023-12-20T01:00:48.929Z,100572.60
2023-12-20T01:03:25.778Z,100580.20
2023-12-20T01:06:02.439Z,100571.40
2023-12-20T01:08:40.999Z,100566.20
2023-12-20T01:11:17.832Z,100560.60
2023-12-20T01:13:55.305Z,100561.20
2023-12-20T01:16:32.539Z,100560.00
2023-12-20T01:19:09.622Z,100559.00
2023-12-20T01:21:45.924Z,100556.40
2023-12-20T01:24:22.413Z,100556.20
2023-12-20T01:26:59.393Z,100554.80
2023-12-20T01:29:36.815Z,100553.80
2023-12-20T01:32:15.375Z,100548.60
2023-12-20T01:34:51.260Z,100545.40
2023-12-20T01:37:28.008Z,100546.60
2023-12-20T01:40:04.470Z,100545.60
2023-12-20T01:42:41.840Z,100543.40
2023-12-20T01:45:22.620Z,100539.00
2023-12-20T01:48:00.419Z,100532.60
2023-12-20T01:50:39.511Z,100534.60
2023-12-20T01:53:19.546Z,100533.00
2023-12-20T01:55:58.704Z,100526.20
2023-12-20T01:58:36.222Z,100526.00
2023-12-20T02:01:13.114Z,100526.00
2023-12-20T02:03:51.316Z,100514.80
2023-12-20T02:06:32.984Z,100513.40
2023-12-20T02:09:10.559Z,100504.20
2023-12-20T02:11:48.184Z,100502.40
2023-12-20T02:14:25.627Z,100509.40
2023-12-20T02:17:03.115Z,100505.20
2023-12-20T02:19:40.206Z,100504.40
2023-12-20T02:22:19.125Z,100506.60
2023-12-20T02:24:55.893Z,100503.40
2023-12-20T02:27:33.472Z,100503.20
2023-12-20T02:30:14.479Z,100501.40
2023-12-20T02:32:52.376Z,100502.00
2023-12-20T02:35:29.199Z,100490.60
2023-12-20T02:38:05.938Z,100489.60
2023-12-20T02:40:49.394Z,100483.60
2023-12-20T02:43:27.441Z,100477.00
2023-12-20T02:46:05.108Z,100482.00
2023-12-20T02:48:41.964Z,100477.80
2023-12-20T02:51:19.049Z,100471.40
2023-12-20T02:53:55.322Z,100466.00
2023-12-20T02:56:32.559Z,100465.80
2023-12-20T02:59:10.033Z,100465.60
2023-12-20T03:01:51.144Z,100461.80
2023-12-20T03:04:28.113Z,100456.40
2023-12-20T03:07:04.980Z,100455.20
2023-12-20T03:09:54.236Z,100455.20
2023-12-20T03:12:40.244Z,100451.80
2023-12-20T03:15:19.104Z,100449.80
2023-12-20T03:17:55.762Z,100442.60
2023-12-20T03:20:35.580Z,100449.20
2023-12-20T03:23:12.807Z,100445.20
2023-12-20T03:25:50.367Z,100438.80
2023-12-20T03:28:27.680Z,100428.20
2023-12-20T03:31:05.388Z,100413.40
2023-12-20T03:33:41.948Z,100414.00
2023-12-20T03:36:19.144Z,100407.00
2023-12-20T03:38:55.659Z,100403.40
2023-12-20T03:41:32.401Z,100407.20
2023-12-20T03:44:09.911Z,100405.40
2023-12-20T03:46:47.148Z,100399.20
2023-12-20T03:49:24.370Z,100398.00
2023-12-20T03:52:01.601Z,100404.20
2023-12-20T03:54:38.764Z,100403.40
2023-12-20T03:57:16.737Z,100403.80
2023-12-20T03:59:53.554Z,100400.80
2023-12-20T04:02:30.412Z,100397.40
2023-12-20T04:05:06.742Z,100398.60
2023-12-20T04:07:44.591Z,100396.60
2023-12-20T04:10:22.177Z,100398.00
2023-12-20T04:12:59.832Z,100399.40
2023-12-20T04:15:36.329Z,100388.20
2023-12-20T04:18:13.523Z,100378.80
2023-12-20T04:20:50.940Z,100382.60
2023-12-20T04:23:27.928Z,100375.80
2023-12-20T04:26:04.421Z,100375.80
2023-12-20T04:28:42.178Z,100374.20
2023-12-20T04:31:19.040Z,100368.00
2023-12-20T04:33:56.112Z,100366.20
2023-12-20T04:36:33.154Z,100363.40
2023-12-20T04:39:10.653Z,100362.60
2023-12-20T04:41:48.814Z,100361.20
2023-12-20T04:44:25.833Z,100368.20
2023-12-20T04:47:02.816Z,100363.80
2023-12-20T04:49:39.524Z,100353.40
2023-12-20T04:52:16.569Z,100352.20
2023-12-20T04:54:52.563Z,100362.00
2023-12-20T04:57:29.702Z,100358.60
2023-12-20T05:00:07.390Z,100350.00
2023-12-20T05:02:44.126Z,100344.00
2023-12-20T05:05:21.205Z,100350.40
2023-12-20T05:07:58.037Z,100352.40
2023-12-20T05:10:34.432Z,100346.40
2023-12-20T05:13:11.901Z,100344.60
2023-12-20T05:15:47.914Z,100346.20
2023-12-20T05:18:24.422Z,100347.80
2023-12-20T05:21:01.102Z,100354.40
2023-12-20T05:23:38.289Z,100362.40
2023-12-20T05:26:14.093Z,100359.80
2023-12-20T05:28:51.082Z,100359.80
2023-12-20T05:31:27.443Z,100361.20
2023-12-20T05:34:03.986Z,100358.00
2023-12-20T05:36:41.035Z,100353.20
2023-12-20T05:39:17.513Z,100348.60
2023-12-20T05:41:54.087Z,100347.00
2023-12-20T05:44:31.205Z,100345.00
2023-12-20T05:47:08.867Z,100342.20
2023-12-20T05:49:47.240Z,100343.80
2023-12-20T05:52:23.924Z,100334.00
2023-12-20T05:55:02.825Z,100337.20
2023-12-20T05:57:40.835Z,100335.40
2023-12-20T06:00:26.591Z,100326.60
2023-12-20T06:03:03.390Z,100326.40
2023-12-20T06:05:40.536Z,100330.40
2023-12-20T06:08:17.810Z,100325.60
2023-12-20T06:10:54.982Z,100330.80
2023-12-20T06:13:32.243Z,100324.00
2023-12-20T06:16:12.637Z,100321.80
2023-12-20T06:18:48.920Z,100321.40
2023-12-20T06:21:25.816Z,100316.40
2023-12-20T06:24:03.662Z,100307.00
2023-12-20T06:26:40.399Z,100309.80
2023-12-20T06:29:17.580Z,100320.60
2023-12-20T06:31:54.641Z,100316.40
2023-12-20T06:34:31.473Z,100310.20
2023-12-20T06:37:08.794Z,100301.80
2023-12-20T06:39:46.923Z,100302.40
2023-12-20T06:42:23.735Z,100304.20
2023-12-20T06:45:00.767Z,100304.60
2023-12-20T06:47:38.060Z,100302.00
2023-12-20T06:50:17.635Z,100302.60
2023-12-20T06:52:54.265Z,100302.00
2023-12-20T06:55:30.833Z,100297.80
2023-12-20T06:58:07.868Z,100297.20
2023-12-20T07:00:44.769Z,100304.00
2023-12-20T07:03:21.766Z,100302.40
2023-12-20T07:05:58.844Z,100298.60
2023-12-20T07:08:35.972Z,100302.20
2023-12-20T07:11:12.874Z,100307.60
2023-12-20T07:13:50.789Z,100308.00
2023-12-20T07:16:28.328Z,100311.40
2023-12-20T07:19:05.582Z,100313.40
2023-12-20T07:21:42.990Z,100325.20
2023-12-20T07:24:19.910Z,100329.60
2023-12-20T07:26:56.989Z,100334.00
2023-12-20T07:29:34.510Z,100333.80
2023-12-20T07:32:14.030Z,100336.80
2023-12-20T07:34:51.761Z,100340.00
2023-12-20T07:37:29.874Z,100350.40
2023-12-20T07:40:06.674Z,100360.20
2023-12-20T07:42:43.245Z,100349.00
2023-12-20T07:45:20.637Z,100349.80
2023-12-20T07:47:58.303Z,100348.80
2023-12-20T07:50:35.331Z,100337.20
2023-12-20T07:53:13.999Z,100327.00
2023-12-20T07:55:50.612Z,100335.40
2023-12-20T07:58:36.378Z,100337.80
2023-12-20T08:01:23.605Z,100347.20
2023-12-20T08:04:01.487Z,100350.20
2023-12-20T08:06:38.112Z,100344.00
2023-12-20T08:09:14.488Z,100345.00
2023-12-20T08:11:53.186Z,100348.20
2023-12-20T08:14:30.945Z,100345.80
2023-12-20T08:17:08.064Z,100353.00
2023-12-20T08:19:49.332Z,100362.40
2023-12-20T08:22:26.138Z,100359.00
2023-12-20T08:25:03.130Z,100356.40
2023-12-20T08:27:39.846Z,100359.60
2023-12-20T08:30:23.511Z,100365.00
2023-12-20T08:32:59.612Z,100363.40
2023-12-20T08:35:36.364Z,100375.80
2023-12-20T08:38:13.409Z,100372.40
2023-12-20T08:40:50.034Z,100365.80
2023-12-20T08:43:26.871Z,100371.60
2023-12-20T08:46:03.335Z,100370.40
2023-12-20T08:48:41.431Z,100363.80
2023-12-20T08:51:19.275Z,100364.00
2023-12-20T08:53:55.986Z,100366.00
2023-12-20T08:56:32.247Z,100369.60
2023-12-20T08:59:08.771Z,100377.20
2023-12-20T09:01:45.731Z,100375.00
2023-12-20T09:04:22.995Z,100371.20
2023-12-20T09:07:00.385Z,100363.60
2023-12-20T09:09:37.441Z,100362.00
2023-12-20T09:12:19.502Z,100363.00
2023-12-20T09:14:57.989Z,100363.60
2023-12-20T09:17:35.580Z,100372.20
2023-12-20T09:20:16.646Z,100379.20
2023-12-20T09:22:53.712Z,100376.20
2023-12-20T09:25:30.010Z,100379.80
2023-12-20T09:28:06.482Z,100383.60
2023-12-20T09:30:43.837Z,100385.40
2023-12-20T09:33:20.215Z,100388.00
2023-12-20T09:35:57.113Z,100381.60
2023-12-20T09:38:33.836Z,100370.80
2023-12-20T09:41:11.956Z,100364.40
2023-12-20T09:43:49.295Z,100356.40
2023-12-20T09:46:32.711Z,100349.40
2023-12-20T09:49:10.781Z,100345.20
2023-12-20T09:51:49.967Z,100343.20
2023-12-20T09:54:27.174Z,100341.60
2023-12-20T09:57:03.560Z,100335.20
2023-12-20T09:59:41.595Z,100333.80
2023-12-20T10:02:25.911Z,100333.60
2023-12-20T10:05:04.840Z,100328.80
2023-12-20T10:07:42.423Z,100326.80
2023-12-20T10:10:21.269Z,100320.60
2023-12-20T10:13:16.252Z,100311.80
2023-12-20T10:15:53.422Z,100312.60
2023-12-20T10:18:38.147Z,100310.60
2023-12-20T10:21:16.293Z,100304.40
2023-12-20T10:23:54.559Z,100296.80
2023-12-20T10:26:32.619Z,100295.80
2023-12-20T10:29:10.847Z,100295.60
2023-12-20T10:31:47.999Z,100288.80
2023-12-20T10:34:25.034Z,100286.20
2023-12-20T10:37:03.364Z,100285.60
2023-12-20T10:39:41.222Z,100288.60
2023-12-20T10:42:18.287Z,100298.20
2023-12-20T10:44:58.500Z,100297.60
2023-12-20T10:47:37.575Z,100284.20
2023-12-20T10:50:20.056Z,100281.20
2023-12-20T10:52:58.862Z,100286.00
2023-12-20T10:55:36.429Z,100284.80
2023-12-20T10:58:17.561Z,100279.60
2023-12-20T11:01:01.810Z,100279.20
2023-12-20T11:03:45.932Z,100268.20
2023-12-20T11:06:39.738Z,100269.80
2023-12-20T11:09:28.682Z,100267.20
2023-12-20T11:12:19.729Z,100271.60
2023-12-20T11:14:59.265Z,100278.80
2023-12-20T11:17:35.756Z,100276.00
2023-12-20T11:20:19.501Z,100279.60
2023-12-20T11:23:04.451Z,100277.20
2023-12-20T11:25:56.204Z,100275.00
2023-12-20T11:28:34.858Z,100274.40
2023-12-20T11:31:12.425Z,100274.80
2023-12-20T11:33:50.259Z,100275.40
2023-12-20T11:36:36.277Z,100274.00
2023-12-20T11:39:14.778Z,100270.60
2023-12-20T11:41:55.604Z,100275.80
2023-12-20T11:44:37.211Z,100276.40
2023-12-20T11:47:17.163Z,100271.20
2023-12-20T11:49:57.440Z,100260.40
2023-12-20T11:52:33.709Z,100253.00
2023-12-20T11:55:11.838Z,100241.40
2023-12-20T11:57:49.271Z,100227.20
2023-12-20T12:00:28.495Z,100230.20
2023-12-20T12:03:10.764Z,100229.80
2023-12-20T12:05:50.069Z,100229.80
2023-12-20T12:08:27.582Z,100225.20
2023-12-20T12:11:05.986Z,100222.40
2023-12-20T12:13:42.765Z,100218.20
2023-12-20T12:16:21.366Z,100216.00
2023-12-20T12:19:05.587Z,100214.80
2023-12-20T12:21:42.128Z,100211.40
2023-12-20T12:24:23.245Z,100206.40
2023-12-20T12:27:06.695Z,100203.20
2023-12-20T12:29:44.220Z,100199.40
2023-12-20T12:32:22.453Z,100191.20
2023-12-20T12:34:59.940Z,100188.80
2023-12-20T12:37:37.473Z,100178.80
2023-12-20T12:40:19.420Z,100186.00
2023-12-20T12:42:56.114Z,100188.60
2023-12-20T12:45:31.662Z,100189.60
2023-12-20T12:48:09.958Z,100192.80
2023-12-20T12:50:46.536Z,100191.80
2023-12-20T12:53:23.289Z,100191.80
2023-12-20T12:56:00.567Z,100186.20
2023-12-20T12:58:37.544Z,100175.80
2023-12-20T13:01:14.872Z,100165.80
2023-12-20T13:03:52.140Z,100172.80
2023-12-20T13:06:29.132Z,100169.40
2023-12-20T13:09:06.062Z,100165.20
2023-12-20T13:11:43.448Z,100163.80
2023-12-20T13:14:20.762Z,100165.00
2023-12-20T13:16:58.446Z,100160.00
2023-12-20T13:19:35.283Z,100155.40
2023-12-20T13:22:13.250Z,100145.80
2023-12-20T13:24:50.097Z,100149.60
2023-12-20T13:27:27.354Z,100147.20
2023-12-20T13:30:04.617Z,100146.00
2023-12-20T13:32:41.161Z,100147.20
2023-12-20T13:35:19.049Z,100145.60
2023-12-20T13:37:59.567Z,100139.60
2023-12-20T13:40:36.767Z,100139.40
2023-12-20T13:43:15.468Z,100145.80
2023-12-20T13:45:52.243Z,100145.60
2023-12-20T13:48:29.573Z,100144.20
2023-12-20T13:51:07.170Z,100138.20
2023-12-20T13:53:44.030Z,100145.00
2023-12-20T13:56:21.521Z,100143.00
2023-12-20T13:58:58.829Z,100145.80
2023-12-20T14:01:35.611Z,100147.80
2023-12-20T14:04:12.843Z,100145.80
2023-12-20T14:07:11.183Z,100155.20
2023-12-20T14:09:47.807Z,100162.20
2023-12-20T14:12:25.448Z,100157.80
2023-12-20T14:15:02.097Z,100157.40
2023-12-20T14:17:38.953Z,100157.80
2023-12-20T14:20:18.486Z,100160.40
2023-12-20T14:22:55.085Z,100160.00
2023-12-20T14:25:39.183Z,100160.80
2023-12-20T14:28:23.047Z,100165.40
2023-12-20T14:31:00.562Z,100160.20
2023-12-20T14:33:37.608Z,100154.80
2023-12-20T14:36:18.898Z,100158.40
2023-12-20T14:38:55.952Z,100161.00
2023-12-20T14:41:34.054Z,100165.00
2023-12-20T14:44:11.050Z,100168.00
2023-12-20T14:46:47.576Z,100168.80
2023-12-20T14:49:24.570Z,100173.00
2023-12-20T14:52:01.622Z,100169.60
2023-12-20T14:54:37.632Z,100167.20
2023-12-20T14:57:14.097Z,100166.60
2023-12-20T14:59:50.736Z,100175.00
2023-12-20T15:02:27.618Z,100183.40
2023-12-20T15:05:04.372Z,100175.80
2023-12-20T15:07:43.108Z,100172.80
2023-12-20T15:10:22.125Z,100165.40
2023-12-20T15:12:59.516Z,100169.80
2023-12-20T15:15:36.170Z,100178.00
2023-12-20T15:18:15.074Z,100185.80
2023-12-20T15:20:51.821Z,100187.60
2023-12-20T15:23:30.587Z,100182.20
2023-12-20T15:26:07.704Z,100177.40
2023-12-20T15:28:44.787Z,100177.20
2023-12-20T15:31:28.050Z,100186.20
2023-12-20T15:34:04.857Z,100186.00
2023-12-20T15:36:42.286Z,100191.60
2023-12-20T15:39:19.319Z,100192.20
2023-12-20T15:41:57.118Z,100184.00
2023-12-20T15:44:34.658Z,100190.40
2023-12-20T15:47:12.309Z,100187.20
2023-12-20T15:49:51.336Z,100191.40
2023-12-20T15:52:29.933Z,100196.40
2023-12-20T15:55:07.982Z,100192.80
2023-12-20T15:57:52.088Z,100200.60
2023-12-20T16:00:32.439Z,100208.20
2023-12-20T16:03:24.017Z,100216.00
2023-12-20T16:06:02.846Z,100218.80
2023-12-20T16:08:39.994Z,100224.60
2023-12-20T16:11:18.528Z,100225.80
2023-12-20T16:13:54.953Z,100224.20
2023-12-20T16:16:32.057Z,100230.60
2023-12-20T16:19:08.497Z,100239.20
2023-12-20T16:21:45.891Z,100243.60
2023-12-20T16:24:22.666Z,100253.00
2023-12-20T16:26:59.113Z,100252.40
2023-12-20T16:29:35.434Z,100255.20
2023-12-20T16:32:13.422Z,100252.40
2023-12-20T16:34:50.652Z,100251.20
2023-12-20T16:37:26.991Z,100252.40
2023-12-20T16:40:03.537Z,100253.60
2023-12-20T16:42:39.403Z,100247.80
2023-12-20T16:45:21.841Z,100251.80
2023-12-20T16:47:58.378Z,100257.60
2023-12-20T16:53:36.442Z,100259.00
2023-12-20T16:56:15.425Z,100258.60
2023-12-20T16:58:53.297Z,100263.60
2023-12-20T17:01:30.531Z,100265.80
2023-12-20T17:04:07.993Z,100266.80
2023-12-20T17:06:45.250Z,100270.20
2023-12-20T17:09:22.727Z,100268.20
2023-12-20T17:12:00.245Z,100271.00
2023-12-20T17:14:37.277Z,100268.40
2023-12-20T17:17:14.548Z,100271.40
2023-12-20T17:19:52.293Z,100269.60
2023-12-20T17:22:30.121Z,100271.60
2023-12-20T17:25:07.671Z,100271.00
2023-12-20T17:27:46.720Z,100277.20
2023-12-20T17:30:25.099Z,100286.60
2023-12-20T17:33:02.139Z,100292.40
2023-12-20T17:35:39.124Z,100295.00
2023-12-20T17:38:15.344Z,100302.00
2023-12-20T17:40:52.414Z,100301.80
2023-12-20T17:43:30.655Z,100300.40
2023-12-20T17:46:07.386Z,100301.80
2023-12-20T17:48:44.909Z,100309.80
2023-12-20T17:51:22.066Z,100313.40
2023-12-20T17:54:02.492Z,100316.20
2023-12-20T17:56:39.411Z,100316.00
2023-12-20T17:59:16.767Z,100323.00
2023-12-20T18:01:54.495Z,100323.80
2023-12-20T18:04:32.516Z,100332.60
2023-12-20T18:07:10.382Z,100331.00
2023-12-20T18:09:46.949Z,100333.80
2023-12-20T18:12:24.328Z,100332.80
2023-12-20T18:15:01.608Z,100326.60
2023-12-20T18:17:50.440Z,100331.20
2023-12-20T18:20:34.725Z,100336.80
2023-12-20T18:23:24.165Z,100341.00
2023-12-20T18:26:04.520Z,100336.00
2023-12-20T18:28:47.528Z,100337.00
2023-12-20T18:31:30.893Z,100341.00
2023-12-20T18:34:11.091Z,100339.80
2023-12-20T18:36:53.572Z,100333.80
2023-12-20T18:39:30.585Z,100338.80
2023-12-20T18:42:11.276Z,100337.20
2023-12-20T18:44:50.568Z,100338.00
2023-12-20T18:47:30.210Z,100330.00
2023-12-20T18:50:10.376Z,100321.80
2023-12-20T18:52:47.618Z,100319.60
2023-12-20T18:55:26.892Z,100325.60
2023-12-20T18:58:13.984Z,100332.60
2023-12-20T19:01:01.156Z,100342.40
2023-12-20T19:03:48.682Z,100346.80
2023-12-20T19:06:29.954Z,100350.40
2023-12-20T19:09:09.377Z,100355.00
2023-12-20T19:11:49.434Z,100353.80
2023-12-20T19:14:26.284Z,100356.80
2023-12-20T19:17:05.590Z,100349.40
2023-12-20T19:19:43.226Z,100361.60
2023-12-20T19:22:20.686Z,100368.20
2023-12-20T19:24:58.729Z,100374.40
2023-12-20T19:27:35.766Z,100369.40
2023-12-20T19:30:18.830Z,100369.80
2023-12-20T19:32:55.186Z,100369.80
2023-12-20T19:35:32.545Z,100372.40
2023-12-20T19:38:10.942Z,100364.00
2023-12-20T19:40:48.067Z,100362.60
2023-12-20T19:43:24.866Z,100362.80
2023-12-20T19:46:01.607Z,100370.20
2023-12-20T19:48:38.316Z,100374.00
2023-12-20T19:51:16.420Z,100372.40
2023-12-20T19:53:53.327Z,100375.80
2023-12-20T19:56:31.492Z,100382.40
2023-12-20T19:59:08.409Z,100379.20
2023-12-20T20:01:46.924Z,100377.60
2023-12-20T20:04:25.010Z,100375.00
2023-12-20T20:07:02.263Z,100368.80
2023-12-20T20:09:39.386Z,100366.80
2023-12-20T20:12:20.481Z,100365.60
2023-12-20T20:14:58.026Z,100367.20
2023-12-20T20:17:35.493Z,100363.60
2023-12-20T20:20:16.182Z,100364.40
2023-12-20T20:22:54.215Z,100368.60
2023-12-20T20:25:35.720Z,100380.00
2023-12-20T20:28:15.417Z,100386.80
2023-12-20T20:30:53.396Z,100388.80
2023-12-20T20:33:31.536Z,100388.80
2023-12-20T20:36:11.665Z,100387.00
2023-12-20T20:38:49.633Z,100398.00
2023-12-20T20:41:26.742Z,100404.40
2023-12-20T20:44:03.644Z,100407.40
2023-12-20T20:46:41.717Z,100409.60
2023-12-20T20:49:19.753Z,100408.00
2023-12-20T20:51:56.513Z,100406.40
2023-12-20T20:54:33.653Z,100402.80
2023-12-20T20:57:11.220Z,100399.20
2023-12-20T20:59:49.161Z,100401.40
2023-12-20T21:02:26.453Z,100413.80
2023-12-20T21:05:04.512Z,100416.00
2023-12-20T21:07:46.179Z,100416.80
2023-12-20T21:10:23.152Z,100424.20
2023-12-20T21:13:00.358Z,100426.80
2023-12-20T21:15:37.066Z,100424.40
2023-12-20T21:18:15.742Z,100418.80
2023-12-20T21:20:55.193Z,100407.00
2023-12-20T21:23:32.587Z,100408.20
2023-12-20T21:26:09.681Z,100413.40
2023-12-20T21:28:47.076Z,100410.20
2023-12-20T21:31:23.425Z,100414.20
2023-12-20T21:34:01.088Z,100412.80
2023-12-20T21:36:37.873Z,100409.60
2023-12-20T21:39:14.282Z,100413.80
2023-12-20T21:41:52.819Z,100424.80
2023-12-20T21:44:29.979Z,100418.40
2023-12-20T21:47:06.637Z,100410.40
2023-12-20T21:49:44.046Z,100401.40
2023-12-20T21:52:21.740Z,100399.40
2023-12-20T21:54:57.740Z,100396.80
2023-12-20T21:57:35.563Z,100400.40
2023-12-20T22:00:18.631Z,100396.20
2023-12-20T22:02:55.846Z,100390.60
2023-12-20T22:05:33.122Z,100383.60
2023-12-20T22:08:13.009Z,100374.80
2023-12-20T22:10:49.756Z,100365.80
2023-12-20T22:13:28.139Z,100364.00
2023-12-20T22:16:06.156Z,100365.20
2023-12-20T22:18:43.372Z,100361.00
2023-12-20T22:21:20.990Z,100361.80
2023-12-20T22:23:57.971Z,100372.20
2023-12-20T22:26:36.755Z,100390.60
2023-12-20T22:29:14.106Z,100397.60
2023-12-20T22:31:51.502Z,100399.80
2023-12-20T22:34:28.522Z,100389.20
2023-12-20T22:37:05.249Z,100378.20
2023-12-20T22:39:41.904Z,100368.80
2023-12-20T22:42:19.025Z,100357.20
2023-12-20T22:44:56.451Z,100359.20
2023-12-20T22:47:33.716Z,100357.80
2023-12-20T22:50:12.724Z,100354.20
2023-12-20T22:52:50.571Z,100355.00
2023-12-20T22:55:27.758Z,100349.40
2023-12-20T22:58:05.972Z,100350.60
2023-12-20T23:00:43.314Z,100356.40
2023-12-20T23:03:26.528Z,100359.80
2023-12-20T23:06:03.235Z,100356.00
2023-12-20T23:08:40.431Z,100361.00
2023-12-20T23:11:17.936Z,100360.20
2023-12-20T23:14:00.934Z,100366.40
2023-12-20T23:16:43.999Z,100371.20
2023-12-20T23:19:20.638Z,100367.00
2023-12-20T23:21:58.144Z,100361.40
2023-12-20T23:24:34.959Z,100362.40
2023-12-20T23:27:13.414Z,100361.60
2023-12-20T23:29:50.707Z,100366.80
2023-12-20T23:32:28.230Z,100372.80
2023-12-20T23:35:13.284Z,100370.60
2023-12-20T23:37:53.665Z,100356.80
2023-12-20T23:40:31.019Z,100341.20
2023-12-20T23:43:09.279Z,100336.20
2023-12-20T23:45:46.864Z,100343.00
2023-12-20T23:48:24.380Z,100336.40
2023-12-20T23:51:02.234Z,100340.40
2023-12-20T23:53:41.160Z,100339.60
2023-12-20T23:56:27.566Z,100349.80
2023-12-20T23:59:10.947Z,100348.40
